dayoftheshirt.com alexa rank chart, dayoftheshirt.com alexa rank daily changes

dayoftheshirt.com alexa rank chart, dayoftheshirt.com alexa rank daily changes

dayoftheshirt.com
Actual rank:
101 017

RANK HISTORY

Date Rank Diff
2018/04/21 101 017 +35 637
2018/04/20 65 380 -47 527
2018/04/19 112 907 -21 762
2018/04/18 134 669 +26 387
2018/04/17 108 282 -18 531
2018/04/16 126 813 +31 390
2018/04/15 95 423 +18 027
2018/04/14 77 396 -14 533
2018/04/13 91 929 +30 171
2018/04/12 61 758 -19 510
2018/04/11 81 268 -15 969
2018/04/10 97 237 -4 204
2018/04/09 101 441 -5 850
2018/04/08 107 291 +21 802
2018/04/07 85 489 -51 830
2018/04/06 137 319 +89 649
2018/04/05 47 670 -27 023
2018/04/04 74 693 -36 529
2018/04/03 111 222 -40 378
2018/04/02 151 600 +82 781
2018/04/01 68 819 -44 575
2018/03/31 113 394 +18 596
2018/03/30 94 798 +28 837
2018/03/29 65 961 +5 190
2018/03/28 60 771 +2 915
2018/03/27 57 856 -70 125
2018/03/26 127 981 -7 752
2018/03/25 135 733 +29 031
2018/03/24 106 702 -2 165
2018/03/23 108 867 +40 811
2018/03/22 68 056 -13 997
2018/03/21 82 053 -25 849
2018/03/20 107 902 +5 174
2018/03/19 102 728 -43 876
2018/03/18 146 604 +66 306
2018/03/17 80 298 -46 816
2018/03/16 127 114 +27 174
2018/03/15 99 940 -18 990
2018/03/14 118 930 +18 630
2018/03/13 100 300 -6 374
2018/03/12 106 674 -13 694
2018/03/11 120 368 -501
2018/03/10 120 869 -35 009
2018/03/09 155 878 +88 975
2018/03/08 66 903 -60 377
2018/03/07 127 280 -40 752
2018/03/06 168 032 +8 248
2018/03/05 159 784 +94 112
2018/03/04 65 672 -72 712
2018/03/03 138 384 +39 783
2018/03/02 98 601 +17 111
2018/03/01 81 490 -123 551
2018/02/28 205 041 +44 716
2018/02/27 160 325 +56 150
2018/02/26 104 175 +4 584
2018/02/25 99 591 -55 630
2018/02/24 155 221 +37 069
2018/02/23 118 152 +3 807
2018/02/22 114 345 +46 895
2018/02/21 67 450 -73 930
2018/02/20 141 380

WIDGET FOR YOUR SITE

DOMAINS WITH THE NEAREST RANK

Domain Rank
drama2.online 101 012
voi-noi.gr 101 013
worldnow.com 101 014
factmyth.com 101 015
elit.ro 101 016
dayoftheshirt.com 101 017
camclips.cc 101 018
arbat-krd.ru 101 019
hobbyhall.fi 101 020
mildewingbbnuobds.download 101 021
ethnicelebs.com 101 022

DOMAINS WITH THE NEAREST RANK BY TLD .com

Domain Rank
paytr.com 101 003
gallifreybase.com 101 009
gravuretube.com 101 011
worldnow.com 101 014
factmyth.com 101 015
dayoftheshirt.com 101 017
ethnicelebs.com 101 022
investorroom.com 101 028
encompass8.com 101 031
btemplates.com 101 033
santafenewmexican.com 101 035